createdAt,value
2017-09-16T20:30:54.822Z,16.60
2017-09-16T20:33:24.047Z,15.10
2017-09-16T20:35:52.496Z,15.10
2017-09-16T20:38:22.715Z,14.20
2017-09-16T20:40:52.887Z,13.60
2017-09-16T20:43:21.791Z,13.20
2017-09-16T20:45:49.922Z,12.80
2017-09-16T20:48:18.034Z,12.60
2017-09-16T20:50:47.093Z,12.50
2017-09-16T20:53:16.872Z,12.40
2017-09-16T20:55:47.183Z,12.30
2017-09-16T20:58:16.264Z,12.20
2017-09-16T21:00:45.340Z,12.20
2017-09-16T21:03:13.805Z,12.20
2017-09-16T21:05:42.310Z,12.10
2017-09-16T21:08:11.982Z,11.90
2017-09-16T21:10:40.835Z,11.90
2017-09-16T21:13:10.324Z,11.80
2017-09-16T21:15:39.567Z,11.90
2017-09-16T21:18:09.756Z,12.20
2017-09-16T21:20:39.065Z,13.40
2017-09-16T21:23:07.865Z,13.30
2017-09-16T21:25:36.315Z,14.70
2017-09-16T21:28:05.651Z,16.10
2017-09-16T21:30:34.108Z,17.30
2017-09-16T21:33:02.505Z,18.20
2017-09-16T21:35:30.918Z,18.90
2017-09-16T21:37:59.203Z,19.40
2017-09-16T21:40:27.631Z,19.80
2017-09-16T21:42:56.037Z,20.20
2017-09-16T21:45:25.235Z,20.70
2017-09-16T21:47:53.654Z,20.70
2017-09-16T21:50:22.052Z,20.90
2017-09-16T21:52:51.231Z,21.20
2017-09-16T21:55:20.079Z,21.30
2017-09-16T21:57:48.498Z,21.30
2017-09-16T22:00:16.980Z,21.40
2017-09-16T22:02:45.374Z,21.50
2017-09-16T22:05:13.796Z,21.60
2017-09-16T22:07:42.231Z,21.70
2017-09-16T22:10:10.306Z,21.80
2017-09-16T22:12:38.722Z,21.90
2017-09-16T22:15:07.150Z,22.00
2017-09-16T22:17:35.567Z,22.00
2017-09-16T22:20:04.733Z,22.20
2017-09-16T22:22:33.275Z,22.20
2017-09-16T22:25:01.686Z,22.20
2017-09-16T22:27:29.764Z,22.30
2017-09-16T22:29:58.451Z,22.30
2017-09-16T22:32:26.876Z,22.30
2017-09-16T22:34:55.080Z,22.40
2017-09-16T22:37:23.497Z,22.40
2017-09-16T22:39:51.722Z,22.50
2017-09-16T22:42:20.134Z,22.50
2017-09-16T22:44:48.565Z,22.60
2017-09-16T22:47:17.739Z,22.60
2017-09-16T22:49:46.155Z,22.60
2017-09-16T22:52:14.221Z,22.70
2017-09-16T22:54:42.630Z,22.70
2017-09-16T22:57:11.818Z,22.80
2017-09-16T22:59:41.003Z,22.80
2017-09-16T23:02:10.177Z,22.80
2017-09-16T23:04:39.349Z,22.90
2017-09-16T23:07:08.735Z,22.90
2017-09-16T23:09:37.897Z,22.90
2017-09-16T23:12:06.320Z,22.90
2017-09-16T23:14:34.751Z,22.90
2017-09-16T23:17:03.928Z,23.00
2017-09-16T23:19:33.098Z,23.00
2017-09-16T23:22:01.533Z,23.00
2017-09-16T23:24:29.948Z,23.00
2017-09-16T23:26:58.380Z,23.10
2017-09-16T23:29:26.816Z,23.00
2017-09-16T23:31:55.226Z,23.10
2017-09-16T23:34:24.383Z,23.10
2017-09-16T23:36:52.830Z,23.10
2017-09-16T23:39:21.223Z,23.10
2017-09-16T23:41:49.637Z,23.20
2017-09-16T23:44:18.070Z,23.20
2017-09-16T23:46:47.243Z,23.20
2017-09-16T23:49:16.418Z,23.20
2017-09-16T23:51:45.615Z,23.20
2017-09-16T23:54:13.663Z,23.20
2017-09-16T23:56:42.848Z,23.30
2017-09-16T23:59:12.071Z,23.30
